aviador You're here:

LFLP Decoded Metar

ANNECY in FRANCE
Report Time2017-08-18 04:30:00
UTC Time2017-08-18 04:41:26
Flight Rules vfr VFR
Wind020° at 03 kt
W.Decomp.*RWY 04: 2.8 kt HW 1 kt LCW
W.Rank020° ranks 3
Current wind is below 020° avg. (5.2)
Visibility9999 m
Phenomena:N/A
Clouds:N/A
Expected CloudBase > 400 ft AGL from Temp-Dew spread
CeilingNone
Temp16°C (ISA +4)
Dew Point15°C (94% RH)
QNH1019 hPa
Density Alt2,024 ft
Elevation1,519 ft
Report Wrong Elevation
Raw Report
METAR LFLP 180430Z AUTO 02003KT CAVOK 16/15 Q1019 NOSIG=

Extra information for LFLP:More info

Metar Taf Metar & Taf Last 4 Metars F.Rules Stats Wind Profile Meteogram Temp Stats Airport Information Weather charts Add Link Nearby VenuesMetar ALERT Operation Metar Decoded Social comments